Terminal Aerodrome Forecast
Issued by NWS

Home | Current Version | Previous Version | Text Only | Print | Product List | Glossary On
Versions: 1 2 3 4 5 6 7 8 9 10 11 12 13 14
000
FTUS41 KCLE 312100 AAA
TAFFDY
TAF AMD
KFDY 312129Z 3121/0118 33014G24KT 6SM -SHRA BR BKN015 OVC025
      TEMPO 0103/0104 4SM -RASN OVC015
     FM010400 35015G25KT 6SM -RASN BKN007 OVC010
     FM011000 34015G25KT 6SM -RASN OVC015
     FM011500 36015G25KT 6SM -RASN OVC018=

USA.gov is the U.S. government's official web portal to all federal, state and local government web resources and services.